Time Latitude Longitude Accuracy (66% radius in meters) Altitude (meters) Speed (km/hour) Bearing (degrees) Battery (%) GPS flag
06:51:04 55.092756 60.338157 0 0 0 0 1 delete
06:51:03 55.092730 60.338174 0 0 0 0 1 delete
06:50:59 55.092698 60.338219 0 0 0 0 1 delete
06:50:53 55.092711 60.338176 0 0 0 0 1 delete
06:50:51 55.092733 60.338224 0 0 0 0 1 delete
06:50:50 55.092795 60.338290 0 0 0 0 1 delete
06:50:49 55.092857 60.338345 0 0 0 0 1 delete
06:50:48 55.092918 60.338384 0 0 0 0 1 delete
06:50:47 55.092972 60.338408 0 0 0 0 1 delete
06:50:46 55.093024 60.338423 0 0 0 0 1 delete
06:50:45 55.093076 60.338434 0 0 0 0 1 delete
06:50:44 55.093129 60.338450 0 0 0 0 1 delete
06:50:43 55.093172 60.338461 0 0 0 0 1 delete
06:50:42 55.093205 60.338463 0 0 0 0 1 delete
06:50:40 55.093258 60.338447 0 0 0 0 1 delete
06:50:38 55.093303 60.338415 0 0 0 0 1 delete
06:50:36 55.093344 60.338375 0 0 0 0 1 delete
06:50:34 55.093384 60.338351 0 0 0 0 1 delete
06:50:32 55.093404 60.338307 0 0 0 0 1 delete
06:50:30 55.093415 60.338259 0 0 0 0 1 delete
06:50:28 55.093448 60.338269 0 0 0 0 1 delete
06:50:26 55.093488 60.338295 0 0 0 0 1 delete
06:50:24 55.093527 60.338323 0 0 0 0 1 delete
06:50:22 55.093575 60.338320 0 0 0 0 1 delete
06:50:20 55.093607 60.338287 0 0 0 0 1 delete
06:50:17 55.093638 60.338257 0 0 0 0 1 delete
06:50:15 55.093664 60.338239 0 0 0 0 1 delete
06:50:13 55.093687 60.338202 0 0 0 0 1 delete
06:50:09 55.093705 60.338158 0 0 0 0 1 delete
06:50:06 55.093722 60.338120 0 0 0 0 1 delete
06:50:01 55.093759 60.338099 0 0 0 0 1 delete
06:49:58 55.093780 60.338047 0 0 0 0 1 delete
06:49:56 55.093792 60.338003 0 0 0 0 1 delete
06:49:54 55.093812 60.337967 0 0 0 0 1 delete
06:49:52 55.093860 60.337953 0 0 0 0 1 delete
06:49:50 55.093891 60.337935 0 0 0 0 1 delete
06:49:47 55.093930 60.337917 0 0 0 0 1 delete
06:49:43 55.093967 60.337922 0 0 0 0 1 delete
06:49:41 55.094013 60.337929 0 0 0 0 1 delete
06:49:39 55.094058 60.337933 0 0 0 0 1 delete
06:49:37 55.094105 60.337938 0 0 0 0 1 delete
06:49:35 55.094136 60.337917 0 0 0 0 1 delete
06:49:32 55.094173 60.337904 0 0 0 0 1 delete
06:49:27 55.094206 60.337904 0 0 0 0 1 delete
06:49:24 55.094240 60.337895 0 0 0 0 1 delete
06:49:21 55.094267 60.337870 0 0 0 0 1 delete
06:49:18 55.094294 60.337856 0 0 0 0 1 delete
06:49:16 55.094330 60.337852 0 0 0 0 1 delete
06:49:14 55.094365 60.337845 0 0 0 0 1 delete
06:49:12 55.094393 60.337859 0 0 0 0 1 delete